sensor_id;sensor_type;location;lat;lon;timestamp;temperature;humidity
35325;DHT22;35135;47.510;19.036;2024-01-15T00:02:17;19.00;48.10
35325;DHT22;35135;47.510;19.036;2024-01-15T00:04:43;19.00;48.10
35325;DHT22;35135;47.510;19.036;2024-01-15T00:07:09;19.00;48.10
35325;DHT22;35135;47.510;19.036;2024-01-15T00:09:34;18.90;48.00
35325;DHT22;35135;47.510;19.036;2024-01-15T00:12:00;19.00;48.10
35325;DHT22;35135;47.510;19.036;2024-01-15T00:14:27;19.00;48.00
35325;DHT22;35135;47.510;19.036;2024-01-15T00:16:53;19.00;48.00
35325;DHT22;35135;47.510;19.036;2024-01-15T00:19:21;19.00;48.00
35325;DHT22;35135;47.510;19.036;2024-01-15T00:21:47;19.00;48.60
35325;DHT22;35135;47.510;19.036;2024-01-15T00:24:13;19.00;48.00
35325;DHT22;35135;47.510;19.036;2024-01-15T00:26:39;19.00;48.00
35325;DHT22;35135;47.510;19.036;2024-01-15T00:29:07;19.00;48.00
35325;DHT22;35135;47.510;19.036;2024-01-15T00:31:33;19.00;48.00
35325;DHT22;35135;47.510;19.036;2024-01-15T00:33:59;18.90;48.00
35325;DHT22;35135;47.510;19.036;2024-01-15T00:36:25;18.90;47.90
35325;DHT22;35135;47.510;19.036;2024-01-15T00:38:50;18.90;47.90
35325;DHT22;35135;47.510;19.036;2024-01-15T00:41:17;18.90;47.90
35325;DHT22;35135;47.510;19.036;2024-01-15T00:43:44;18.90;47.90
35325;DHT22;35135;47.510;19.036;2024-01-15T00:46:10;18.90;47.90
35325;DHT22;35135;47.510;19.036;2024-01-15T00:48:36;19.00;47.90
35325;DHT22;35135;47.510;19.036;2024-01-15T00:51:04;18.90;47.90
35325;DHT22;35135;47.510;19.036;2024-01-15T00:53:30;18.90;47.90
35325;DHT22;35135;47.510;19.036;2024-01-15T00:55:55;18.90;47.90
35325;DHT22;35135;47.510;19.036;2024-01-15T00:58:21;18.90;47.90
35325;DHT22;35135;47.510;19.036;2024-01-15T01:00:47;18.90;47.80
35325;DHT22;35135;47.510;19.036;2024-01-15T01:03:12;18.90;47.90
35325;DHT22;35135;47.510;19.036;2024-01-15T01:05:38;18.90;47.80
35325;DHT22;35135;47.510;19.036;2024-01-15T01:08:04;18.90;47.80
35325;DHT22;35135;47.510;19.036;2024-01-15T01:10:30;18.90;47.80
35325;DHT22;35135;47.510;19.036;2024-01-15T01:12:56;18.90;47.80
35325;DHT22;35135;47.510;19.036;2024-01-15T01:15:21;18.90;47.80
35325;DHT22;35135;47.510;19.036;2024-01-15T01:17:47;18.90;47.80
35325;DHT22;35135;47.510;19.036;2024-01-15T01:20:13;18.90;47.70
35325;DHT22;35135;47.510;19.036;2024-01-15T01:22:41;18.90;47.80
35325;DHT22;35135;47.510;19.036;2024-01-15T01:25:06;18.90;47.70
35325;DHT22;35135;47.510;19.036;2024-01-15T01:27:32;18.90;47.70
35325;DHT22;35135;47.510;19.036;2024-01-15T01:29:58;18.90;47.70
35325;DHT22;35135;47.510;19.036;2024-01-15T01:32:24;18.90;47.70
35325;DHT22;35135;47.510;19.036;2024-01-15T01:34:49;18.90;47.70
35325;DHT22;35135;47.510;19.036;2024-01-15T01:37:15;18.90;47.70
35325;DHT22;35135;47.510;19.036;2024-01-15T01:39:41;18.90;47.70
35325;DHT22;35135;47.510;19.036;2024-01-15T01:42:07;18.90;47.70
35325;DHT22;35135;47.510;19.036;2024-01-15T01:44:33;18.90;47.70
35325;DHT22;35135;47.510;19.036;2024-01-15T01:47:00;18.90;47.60
35325;DHT22;35135;47.510;19.036;2024-01-15T01:49:27;18.90;47.60
35325;DHT22;35135;47.510;19.036;2024-01-15T01:51:54;18.90;47.60
35325;DHT22;35135;47.510;19.036;2024-01-15T01:54:22;18.90;47.60
35325;DHT22;35135;47.510;19.036;2024-01-15T01:56:48;18.90;47.60
35325;DHT22;35135;47.510;19.036;2024-01-15T01:59:14;18.90;47.60
35325;DHT22;35135;47.510;19.036;2024-01-15T02:01:41;18.80;47.60
35325;DHT22;35135;47.510;19.036;2024-01-15T02:04:08;18.80;47.60
35325;DHT22;35135;47.510;19.036;2024-01-15T02:06:34;18.90;47.60
35325;DHT22;35135;47.510;19.036;2024-01-15T02:08:59;18.80;47.60
35325;DHT22;35135;47.510;19.036;2024-01-15T02:11:26;18.80;47.50
35325;DHT22;35135;47.510;19.036;2024-01-15T02:13:52;18.80;47.50
35325;DHT22;35135;47.510;19.036;2024-01-15T02:16:17;18.90;47.60
35325;DHT22;35135;47.510;19.036;2024-01-15T02:18:44;18.80;47.50
35325;DHT22;35135;47.510;19.036;2024-01-15T02:21:10;18.80;47.50
35325;DHT22;35135;47.510;19.036;2024-01-15T02:23:36;18.80;47.60
35325;DHT22;35135;47.510;19.036;2024-01-15T02:26:03;18.80;47.50
35325;DHT22;35135;47.510;19.036;2024-01-15T02:28:30;18.80;47.50
35325;DHT22;35135;47.510;19.036;2024-01-15T02:30:55;18.80;47.50
35325;DHT22;35135;47.510;19.036;2024-01-15T02:33:21;18.80;47.40
35325;DHT22;35135;47.510;19.036;2024-01-15T02:35:47;18.80;47.40
35325;DHT22;35135;47.510;19.036;2024-01-15T02:38:15;18.80;47.40
35325;DHT22;35135;47.510;19.036;2024-01-15T02:40:42;18.80;47.40
35325;DHT22;35135;47.510;19.036;2024-01-15T02:43:08;18.80;47.40
35325;DHT22;35135;47.510;19.036;2024-01-15T02:45:34;18.80;47.40
35325;DHT22;35135;47.510;19.036;2024-01-15T02:48:00;18.80;47.40
35325;DHT22;35135;47.510;19.036;2024-01-15T02:50:26;18.80;47.40
35325;DHT22;35135;47.510;19.036;2024-01-15T02:52:52;18.80;47.40
35325;DHT22;35135;47.510;19.036;2024-01-15T02:55:17;18.80;47.40
35325;DHT22;35135;47.510;19.036;2024-01-15T02:57:43;18.80;47.30
35325;DHT22;35135;47.510;19.036;2024-01-15T03:00:09;18.80;47.30
35325;DHT22;35135;47.510;19.036;2024-01-15T03:02:39;18.80;47.40
35325;DHT22;35135;47.510;19.036;2024-01-15T03:05:09;18.80;47.30
35325;DHT22;35135;47.510;19.036;2024-01-15T03:07:34;18.80;47.30
35325;DHT22;35135;47.510;19.036;2024-01-15T03:10:00;18.80;47.30
35325;DHT22;35135;47.510;19.036;2024-01-15T03:12:26;18.80;47.30
35325;DHT22;35135;47.510;19.036;2024-01-15T03:14:52;18.80;47.30
35325;DHT22;35135;47.510;19.036;2024-01-15T03:17:17;18.80;47.30
35325;DHT22;35135;47.510;19.036;2024-01-15T03:19:43;18.80;47.30
35325;DHT22;35135;47.510;19.036;2024-01-15T03:22:09;18.80;47.30
35325;DHT22;35135;47.510;19.036;2024-01-15T03:24:34;18.80;47.30
35325;DHT22;35135;47.510;19.036;2024-01-15T03:27:01;18.80;47.30
35325;DHT22;35135;47.510;19.036;2024-01-15T03:29:26;18.80;47.30
35325;DHT22;35135;47.510;19.036;2024-01-15T03:31:52;18.80;47.30
35325;DHT22;35135;47.510;19.036;2024-01-15T03:34:18;18.70;47.20
35325;DHT22;35135;47.510;19.036;2024-01-15T03:36:44;18.70;47.20
35325;DHT22;35135;47.510;19.036;2024-01-15T03:39:10;18.70;47.20
35325;DHT22;35135;47.510;19.036;2024-01-15T03:41:35;18.70;47.20
35325;DHT22;35135;47.510;19.036;2024-01-15T03:44:01;18.80;47.20
35325;DHT22;35135;47.510;19.036;2024-01-15T03:46:27;18.80;47.20
35325;DHT22;35135;47.510;19.036;2024-01-15T03:48:53;18.70;47.20
35325;DHT22;35135;47.510;19.036;2024-01-15T03:51:19;18.70;47.20
35325;DHT22;35135;47.510;19.036;2024-01-15T03:53:44;18.70;47.20
35325;DHT22;35135;47.510;19.036;2024-01-15T03:56:10;18.80;47.20
35325;DHT22;35135;47.510;19.036;2024-01-15T03:58:36;18.70;47.20
35325;DHT22;35135;47.510;19.036;2024-01-15T04:01:01;18.70;47.20
35325;DHT22;35135;47.510;19.036;2024-01-15T04:03:27;18.70;47.20
35325;DHT22;35135;47.510;19.036;2024-01-15T04:05:53;18.70;47.20
35325;DHT22;35135;47.510;19.036;2024-01-15T04:08:19;18.70;47.20
35325;DHT22;35135;47.510;19.036;2024-01-15T04:10:44;18.70;47.20
35325;DHT22;35135;47.510;19.036;2024-01-15T04:13:10;18.70;47.20
35325;DHT22;35135;47.510;19.036;2024-01-15T04:15:36;18.70;47.20
35325;DHT22;35135;47.510;19.036;2024-01-15T04:18:03;18.70;47.10
35325;DHT22;35135;47.510;19.036;2024-01-15T04:20:28;18.70;47.10
35325;DHT22;35135;47.510;19.036;2024-01-15T04:22:54;18.70;47.10
35325;DHT22;35135;47.510;19.036;2024-01-15T04:25:20;18.80;47.20
35325;DHT22;35135;47.510;19.036;2024-01-15T04:27:46;18.90;47.20
35325;DHT22;35135;47.510;19.036;2024-01-15T04:30:12;19.00;47.10
35325;DHT22;35135;47.510;19.036;2024-01-15T04:32:37;19.10;47.00
35325;DHT22;35135;47.510;19.036;2024-01-15T04:35:03;19.20;46.70
35325;DHT22;35135;47.510;19.036;2024-01-15T04:37:29;19.30;46.50
35325;DHT22;35135;47.510;19.036;2024-01-15T04:39:55;19.40;46.30
35325;DHT22;35135;47.510;19.036;2024-01-15T04:42:23;19.40;46.10
35325;DHT22;35135;47.510;19.036;2024-01-15T04:44:48;19.50;46.10
35325;DHT22;35135;47.510;19.036;2024-01-15T04:47:14;19.50;46.00
35325;DHT22;35135;47.510;19.036;2024-01-15T04:49:40;19.50;46.60
35325;DHT22;35135;47.510;19.036;2024-01-15T04:52:05;19.50;45.90
35325;DHT22;35135;47.510;19.036;2024-01-15T04:54:31;19.50;45.90
35325;DHT22;35135;47.510;19.036;2024-01-15T04:56:57;19.60;45.80
35325;DHT22;35135;47.510;19.036;2024-01-15T04:59:23;19.50;45.80
35325;DHT22;35135;47.510;19.036;2024-01-15T05:01:48;19.50;45.70
35325;DHT22;35135;47.510;19.036;2024-01-15T05:04:15;19.50;45.70
35325;DHT22;35135;47.510;19.036;2024-01-15T05:06:40;19.50;45.80
35325;DHT22;35135;47.510;19.036;2024-01-15T05:09:06;19.50;45.70
35325;DHT22;35135;47.510;19.036;2024-01-15T05:11:32;19.40;45.90
35325;DHT22;35135;47.510;19.036;2024-01-15T05:13:58;19.40;45.90
35325;DHT22;35135;47.510;19.036;2024-01-15T05:16:23;19.40;45.90
35325;DHT22;35135;47.510;19.036;2024-01-15T05:18:49;19.40;45.90
35325;DHT22;35135;47.510;19.036;2024-01-15T05:21:15;19.40;45.90
35325;DHT22;35135;47.510;19.036;2024-01-15T05:23:40;19.30;46.00
35325;DHT22;35135;47.510;19.036;2024-01-15T05:26:06;19.30;46.00
35325;DHT22;35135;47.510;19.036;2024-01-15T05:28:34;19.30;46.70
35325;DHT22;35135;47.510;19.036;2024-01-15T05:31:00;19.20;46.00
35325;DHT22;35135;47.510;19.036;2024-01-15T05:33:25;19.20;46.10
35325;DHT22;35135;47.510;19.036;2024-01-15T05:35:51;19.20;46.10
35325;DHT22;35135;47.510;19.036;2024-01-15T05:38:17;19.20;46.00
35325;DHT22;35135;47.510;19.036;2024-01-15T05:40:43;19.20;46.20
35325;DHT22;35135;47.510;19.036;2024-01-15T05:43:09;19.30;46.20
35325;DHT22;35135;47.510;19.036;2024-01-15T05:45:35;19.40;46.30
35325;DHT22;35135;47.510;19.036;2024-01-15T05:48:01;19.50;46.00
35325;DHT22;35135;47.510;19.036;2024-01-15T05:52:53;19.70;45.20
35325;DHT22;35135;47.510;19.036;2024-01-15T05:55:20;19.90;45.60
35325;DHT22;35135;47.510;19.036;2024-01-15T05:57:46;19.90;45.40
35325;DHT22;35135;47.510;19.036;2024-01-15T06:00:13;20.10;45.30
35325;DHT22;35135;47.510;19.036;2024-01-15T06:02:39;20.20;45.20
35325;DHT22;35135;47.510;19.036;2024-01-15T06:05:08;20.30;45.00
35325;DHT22;35135;47.510;19.036;2024-01-15T06:07:35;20.30;44.90
35325;DHT22;35135;47.510;19.036;2024-01-15T06:10:03;20.30;44.80
35325;DHT22;35135;47.510;19.036;2024-01-15T06:12:31;20.40;44.90
35325;DHT22;35135;47.510;19.036;2024-01-15T06:14:58;20.40;44.80
35325;DHT22;35135;47.510;19.036;2024-01-15T06:17:23;20.40;44.80
35325;DHT22;35135;47.510;19.036;2024-01-15T06:19:49;20.40;44.70
35325;DHT22;35135;47.510;19.036;2024-01-15T06:22:15;20.40;44.60
35325;DHT22;35135;47.510;19.036;2024-01-15T06:24:41;20.40;44.50
35325;DHT22;35135;47.510;19.036;2024-01-15T06:27:07;20.40;44.50
35325;DHT22;35135;47.510;19.036;2024-01-15T06:29:33;20.40;45.10
35325;DHT22;35135;47.510;19.036;2024-01-15T06:31:59;20.30;44.40
35325;DHT22;35135;47.510;19.036;2024-01-15T06:34:25;20.30;44.50
35325;DHT22;35135;47.510;19.036;2024-01-15T06:36:51;20.30;44.50
35325;DHT22;35135;47.510;19.036;2024-01-15T06:39:16;20.30;44.70
35325;DHT22;35135;47.510;19.036;2024-01-15T06:41:42;20.20;44.70
35325;DHT22;35135;47.510;19.036;2024-01-15T06:44:12;20.20;44.70
35325;DHT22;35135;47.510;19.036;2024-01-15T06:46:44;20.20;44.80
35325;DHT22;35135;47.510;19.036;2024-01-15T06:49:11;20.20;44.90
35325;DHT22;35135;47.510;19.036;2024-01-15T06:51:37;20.10;44.70
35325;DHT22;35135;47.510;19.036;2024-01-15T06:54:03;20.10;44.70
35325;DHT22;35135;47.510;19.036;2024-01-15T06:56:29;20.10;44.90
35325;DHT22;35135;47.510;19.036;2024-01-15T06:58:55;20.00;45.00
35325;DHT22;35135;47.510;19.036;2024-01-15T07:01:20;20.00;44.80
35325;DHT22;35135;47.510;19.036;2024-01-15T07:03:46;20.00;45.00
35325;DHT22;35135;47.510;19.036;2024-01-15T07:06:12;20.00;44.80
35325;DHT22;35135;47.510;19.036;2024-01-15T07:08:39;20.00;44.90
35325;DHT22;35135;47.510;19.036;2024-01-15T07:11:05;19.90;44.90
35325;DHT22;35135;47.510;19.036;2024-01-15T07:13:31;19.90;44.90
35325;DHT22;35135;47.510;19.036;2024-01-15T07:15:57;19.90;45.00
35325;DHT22;35135;47.510;19.036;2024-01-15T07:18:23;19.90;45.10
35325;DHT22;35135;47.510;19.036;2024-01-15T07:20:49;19.80;45.00
35325;DHT22;35135;47.510;19.036;2024-01-15T07:23:14;19.80;44.50
35325;DHT22;35135;47.510;19.036;2024-01-15T07:25:40;19.80;44.60
35325;DHT22;35135;47.510;19.036;2024-01-15T07:28:06;19.80;44.90
35325;DHT22;35135;47.510;19.036;2024-01-15T07:30:31;19.80;44.80
35325;DHT22;35135;47.510;19.036;2024-01-15T07:32:57;19.80;44.90
35325;DHT22;35135;47.510;19.036;2024-01-15T07:35:23;19.70;44.90
35325;DHT22;35135;47.510;19.036;2024-01-15T07:37:49;19.70;44.90
35325;DHT22;35135;47.510;19.036;2024-01-15T07:40:14;19.70;44.90
35325;DHT22;35135;47.510;19.036;2024-01-15T07:42:40;19.70;45.00
35325;DHT22;35135;47.510;19.036;2024-01-15T07:45:08;19.70;45.00
35325;DHT22;35135;47.510;19.036;2024-01-15T07:47:34;19.70;45.00
35325;DHT22;35135;47.510;19.036;2024-01-15T07:50:00;19.70;45.00
35325;DHT22;35135;47.510;19.036;2024-01-15T07:52:25;19.60;44.90
35325;DHT22;35135;47.510;19.036;2024-01-15T07:54:51;19.60;45.00
35325;DHT22;35135;47.510;19.036;2024-01-15T07:57:17;19.60;44.90
35325;DHT22;35135;47.510;19.036;2024-01-15T07:59:43;19.60;45.00
35325;DHT22;35135;47.510;19.036;2024-01-15T08:02:08;19.60;44.90
35325;DHT22;35135;47.510;19.036;2024-01-15T08:04:34;19.60;44.90
35325;DHT22;35135;47.510;19.036;2024-01-15T08:07:00;19.60;44.90
35325;DHT22;35135;47.510;19.036;2024-01-15T08:09:25;19.60;44.90
35325;DHT22;35135;47.510;19.036;2024-01-15T08:11:51;19.60;44.90
35325;DHT22;35135;47.510;19.036;2024-01-15T08:14:17;19.60;44.90
35325;DHT22;35135;47.510;19.036;2024-01-15T08:16:43;19.60;44.90
35325;DHT22;35135;47.510;19.036;2024-01-15T08:19:09;19.60;45.00
35325;DHT22;35135;47.510;19.036;2024-01-15T08:21:35;19.60;45.00
35325;DHT22;35135;47.510;19.036;2024-01-15T08:24:02;19.60;44.90
35325;DHT22;35135;47.510;19.036;2024-01-15T08:26:28;19.60;45.00
35325;DHT22;35135;47.510;19.036;2024-01-15T08:28:54;19.70;44.90
35325;DHT22;35135;47.510;19.036;2024-01-15T08:31:20;19.70;44.80
35325;DHT22;35135;47.510;19.036;2024-01-15T08:33:46;19.70;44.80
35325;DHT22;35135;47.510;19.036;2024-01-15T08:36:11;19.70;44.80
35325;DHT22;35135;47.510;19.036;2024-01-15T08:38:37;19.70;44.70
35325;DHT22;35135;47.510;19.036;2024-01-15T08:41:03;19.60;44.80
35325;DHT22;35135;47.510;19.036;2024-01-15T08:43:29;19.60;44.70
35325;DHT22;35135;47.510;19.036;2024-01-15T08:45:56;19.60;44.80
35325;DHT22;35135;47.510;19.036;2024-01-15T08:48:22;19.60;44.70
35325;DHT22;35135;47.510;19.036;2024-01-15T08:50:48;19.60;44.70
35325;DHT22;35135;47.510;19.036;2024-01-15T08:53:14;19.60;44.70
35325;DHT22;35135;47.510;19.036;2024-01-15T08:55:40;19.60;44.80
35325;DHT22;35135;47.510;19.036;2024-01-15T08:58:08;19.60;44.80
35325;DHT22;35135;47.510;19.036;2024-01-15T09:00:34;19.60;44.80
35325;DHT22;35135;47.510;19.036;2024-01-15T09:02:59;19.50;44.70
35325;DHT22;35135;47.510;19.036;2024-01-15T09:05:25;19.50;45.30
35325;DHT22;35135;47.510;19.036;2024-01-15T09:07:51;19.50;44.70
35325;DHT22;35135;47.510;19.036;2024-01-15T09:10:20;19.50;44.70
35325;DHT22;35135;47.510;19.036;2024-01-15T09:12:46;19.50;44.70
35325;DHT22;35135;47.510;19.036;2024-01-15T09:15:12;19.50;44.70
35325;DHT22;35135;47.510;19.036;2024-01-15T09:17:38;19.50;44.70
35325;DHT22;35135;47.510;19.036;2024-01-15T09:20:04;19.50;44.60
35325;DHT22;35135;47.510;19.036;2024-01-15T09:22:31;19.50;44.70
35325;DHT22;35135;47.510;19.036;2024-01-15T09:24:56;19.50;44.70
35325;DHT22;35135;47.510;19.036;2024-01-15T09:27:22;19.50;44.70
35325;DHT22;35135;47.510;19.036;2024-01-15T09:29:48;19.50;44.70
35325;DHT22;35135;47.510;19.036;2024-01-15T09:32:13;19.50;44.60
35325;DHT22;35135;47.510;19.036;2024-01-15T09:34:41;19.40;44.60
35325;DHT22;35135;47.510;19.036;2024-01-15T09:37:07;19.40;44.70
35325;DHT22;35135;47.510;19.036;2024-01-15T09:39:32;19.40;44.70
35325;DHT22;35135;47.510;19.036;2024-01-15T09:41:58;19.40;44.60
35325;DHT22;35135;47.510;19.036;2024-01-15T09:44:25;19.40;44.60
35325;DHT22;35135;47.510;19.036;2024-01-15T09:46:52;19.40;44.50
35325;DHT22;35135;47.510;19.036;2024-01-15T09:49:18;19.40;44.60
35325;DHT22;35135;47.510;19.036;2024-01-15T09:51:44;19.40;44.60
35325;DHT22;35135;47.510;19.036;2024-01-15T09:54:10;19.40;44.60
35325;DHT22;35135;47.510;19.036;2024-01-15T09:56:39;19.40;44.50
35325;DHT22;35135;47.510;19.036;2024-01-15T09:59:05;19.40;44.60
35325;DHT22;35135;47.510;19.036;2024-01-15T10:01:36;19.40;44.60
35325;DHT22;35135;47.510;19.036;2024-01-15T10:04:04;19.40;44.60
35325;DHT22;35135;47.510;19.036;2024-01-15T10:06:30;19.40;44.60
35325;DHT22;35135;47.510;19.036;2024-01-15T10:08:57;19.40;45.10
35325;DHT22;35135;47.510;19.036;2024-01-15T10:11:26;19.30;44.60
35325;DHT22;35135;47.510;19.036;2024-01-15T10:13:52;19.40;44.60
35325;DHT22;35135;47.510;19.036;2024-01-15T10:16:19;19.30;44.50
35325;DHT22;35135;47.510;19.036;2024-01-15T10:18:45;19.40;44.40
35325;DHT22;35135;47.510;19.036;2024-01-15T10:21:11;19.30;44.40
35325;DHT22;35135;47.510;19.036;2024-01-15T10:23:37;19.40;44.50
35325;DHT22;35135;47.510;19.036;2024-01-15T10:26:03;19.30;44.40
35325;DHT22;35135;47.510;19.036;2024-01-15T10:28:30;19.40;44.30
35325;DHT22;35135;47.510;19.036;2024-01-15T10:30:58;19.30;44.30
35325;DHT22;35135;47.510;19.036;2024-01-15T10:33:25;19.30;44.30
35325;DHT22;35135;47.510;19.036;2024-01-15T10:35:57;19.30;44.30
35325;DHT22;35135;47.510;19.036;2024-01-15T10:38:24;19.30;44.30
35325;DHT22;35135;47.510;19.036;2024-01-15T10:40:54;19.30;44.40
35325;DHT22;35135;47.510;19.036;2024-01-15T10:43:21;19.30;44.40
35325;DHT22;35135;47.510;19.036;2024-01-15T10:45:48;19.30;44.40
35325;DHT22;35135;47.510;19.036;2024-01-15T10:48:15;19.30;44.40
35325;DHT22;35135;47.510;19.036;2024-01-15T10:50:41;19.30;44.40
35325;DHT22;35135;47.510;19.036;2024-01-15T10:53:08;19.30;44.40
35325;DHT22;35135;47.510;19.036;2024-01-15T10:55:35;19.30;44.40
35325;DHT22;35135;47.510;19.036;2024-01-15T10:58:03;19.30;44.40
35325;DHT22;35135;47.510;19.036;2024-01-15T11:00:29;19.30;44.50
35325;DHT22;35135;47.510;19.036;2024-01-15T11:02:55;19.30;44.50
35325;DHT22;35135;47.510;19.036;2024-01-15T11:05:22;19.30;44.90
35325;DHT22;35135;47.510;19.036;2024-01-15T11:07:51;19.30;44.20
35325;DHT22;35135;47.510;19.036;2024-01-15T11:10:52;19.30;44.30
35325;DHT22;35135;47.510;19.036;2024-01-15T11:16:01;19.30;44.30
35325;DHT22;35135;47.510;19.036;2024-01-15T11:18:35;19.30;44.30
35325;DHT22;35135;47.510;19.036;2024-01-15T11:23:43;19.30;44.40
35325;DHT22;35135;47.510;19.036;2024-01-15T11:29:10;19.30;44.40
35325;DHT22;35135;47.510;19.036;2024-01-15T11:34:21;19.30;44.20
35325;DHT22;35135;47.510;19.036;2024-01-15T11:37:07;19.30;44.20
35325;DHT22;35135;47.510;19.036;2024-01-15T11:42:00;19.30;44.20
35325;DHT22;35135;47.510;19.036;2024-01-15T11:44:27;19.30;44.30
35325;DHT22;35135;47.510;19.036;2024-01-15T11:47:00;19.30;44.20
35325;DHT22;35135;47.510;19.036;2024-01-15T11:52:05;19.30;44.20
35325;DHT22;35135;47.510;19.036;2024-01-15T11:54:33;19.30;44.20
35325;DHT22;35135;47.510;19.036;2024-01-15T11:57:07;19.30;44.10
35325;DHT22;35135;47.510;19.036;2024-01-15T11:59:35;19.30;44.00
35325;DHT22;35135;47.510;19.036;2024-01-15T12:02:02;19.30;44.20
35325;DHT22;35135;47.510;19.036;2024-01-15T12:04:28;19.30;43.90
35325;DHT22;35135;47.510;19.036;2024-01-15T12:06:54;19.30;44.00
35325;DHT22;35135;47.510;19.036;2024-01-15T12:09:20;19.30;44.10
35325;DHT22;35135;47.510;19.036;2024-01-15T12:11:53;19.30;44.10
35325;DHT22;35135;47.510;19.036;2024-01-15T12:14:21;19.30;44.00
35325;DHT22;35135;47.510;19.036;2024-01-15T12:16:47;19.30;44.00
35325;DHT22;35135;47.510;19.036;2024-01-15T12:19:15;19.30;44.00
35325;DHT22;35135;47.510;19.036;2024-01-15T12:21:41;19.30;44.00
35325;DHT22;35135;47.510;19.036;2024-01-15T12:24:10;19.30;44.00
35325;DHT22;35135;47.510;19.036;2024-01-15T12:26:35;19.30;44.00
35325;DHT22;35135;47.510;19.036;2024-01-15T12:29:02;19.30;44.00
35325;DHT22;35135;47.510;19.036;2024-01-15T12:31:29;19.30;44.00
35325;DHT22;35135;47.510;19.036;2024-01-15T12:33:56;19.30;44.00
35325;DHT22;35135;47.510;19.036;2024-01-15T12:36:21;19.30;44.00
35325;DHT22;35135;47.510;19.036;2024-01-15T12:38:47;19.30;43.90
35325;DHT22;35135;47.510;19.036;2024-01-15T12:41:13;19.30;43.80
35325;DHT22;35135;47.510;19.036;2024-01-15T12:43:39;19.30;43.90
35325;DHT22;35135;47.510;19.036;2024-01-15T12:46:07;19.30;43.80
35325;DHT22;35135;47.510;19.036;2024-01-15T12:48:32;19.30;43.90
35325;DHT22;35135;47.510;19.036;2024-01-15T12:50:58;19.30;44.00
35325;DHT22;35135;47.510;19.036;2024-01-15T12:53:24;19.30;44.00
35325;DHT22;35135;47.510;19.036;2024-01-15T12:55:49;19.30;43.80
35325;DHT22;35135;47.510;19.036;2024-01-15T12:58:15;19.30;44.00
35325;DHT22;35135;47.510;19.036;2024-01-15T13:00:41;19.30;44.00
35325;DHT22;35135;47.510;19.036;2024-01-15T13:03:07;19.30;43.90
35325;DHT22;35135;47.510;19.036;2024-01-15T13:05:32;19.30;44.00
35325;DHT22;35135;47.510;19.036;2024-01-15T13:07:59;19.30;44.00
35325;DHT22;35135;47.510;19.036;2024-01-15T13:10:25;19.30;44.10
35325;DHT22;35135;47.510;19.036;2024-01-15T13:12:51;19.30;44.30
35325;DHT22;35135;47.510;19.036;2024-01-15T13:15:17;19.30;44.50
35325;DHT22;35135;47.510;19.036;2024-01-15T13:17:42;19.30;44.60
35325;DHT22;35135;47.510;19.036;2024-01-15T13:20:09;19.30;44.70
35325;DHT22;35135;47.510;19.036;2024-01-15T13:22:36;19.30;44.80
35325;DHT22;35135;47.510;19.036;2024-01-15T13:25:04;19.30;45.00
35325;DHT22;35135;47.510;19.036;2024-01-15T13:27:32;19.30;45.10
35325;DHT22;35135;47.510;19.036;2024-01-15T13:30:00;19.30;45.40
35325;DHT22;35135;47.510;19.036;2024-01-15T13:32:27;19.30;45.70
35325;DHT22;35135;47.510;19.036;2024-01-15T13:34:55;19.40;45.60
35325;DHT22;35135;47.510;19.036;2024-01-15T13:37:21;19.40;45.60
35325;DHT22;35135;47.510;19.036;2024-01-15T13:39:46;19.40;45.80
35325;DHT22;35135;47.510;19.036;2024-01-15T13:42:12;19.40;45.80
35325;DHT22;35135;47.510;19.036;2024-01-15T13:44:38;19.40;45.90
35325;DHT22;35135;47.510;19.036;2024-01-15T13:47:03;19.40;45.70
35325;DHT22;35135;47.510;19.036;2024-01-15T13:49:30;19.40;45.80
35325;DHT22;35135;47.510;19.036;2024-01-15T13:51:56;19.30;45.70
35325;DHT22;35135;47.510;19.036;2024-01-15T13:54:22;19.30;45.70
35325;DHT22;35135;47.510;19.036;2024-01-15T13:56:48;19.30;45.70
35325;DHT22;35135;47.510;19.036;2024-01-15T13:59:15;19.30;45.70
35325;DHT22;35135;47.510;19.036;2024-01-15T14:01:41;19.30;45.80
35325;DHT22;35135;47.510;19.036;2024-01-15T14:04:07;19.30;45.70
35325;DHT22;35135;47.510;19.036;2024-01-15T14:06:33;19.30;45.70
35325;DHT22;35135;47.510;19.036;2024-01-15T14:08:59;19.30;45.70
35325;DHT22;35135;47.510;19.036;2024-01-15T14:11:24;19.30;45.70
35325;DHT22;35135;47.510;19.036;2024-01-15T14:13:50;19.30;46.20
35325;DHT22;35135;47.510;19.036;2024-01-15T14:16:16;19.30;46.20
35325;DHT22;35135;47.510;19.036;2024-01-15T14:18:42;19.30;45.60
35325;DHT22;35135;47.510;19.036;2024-01-15T14:21:07;19.30;45.60
35325;DHT22;35135;47.510;19.036;2024-01-15T14:23:33;19.30;45.60
35325;DHT22;35135;47.510;19.036;2024-01-15T14:25:59;19.30;45.60
35325;DHT22;35135;47.510;19.036;2024-01-15T14:28:25;19.30;45.50
35325;DHT22;35135;47.510;19.036;2024-01-15T14:30:50;19.20;45.50
35325;DHT22;35135;47.510;19.036;2024-01-15T14:33:16;19.20;45.50
35325;DHT22;35135;47.510;19.036;2024-01-15T14:35:42;19.20;45.50
35325;DHT22;35135;47.510;19.036;2024-01-15T14:38:08;19.20;45.50
35325;DHT22;35135;47.510;19.036;2024-01-15T14:40:34;19.20;45.50
35325;DHT22;35135;47.510;19.036;2024-01-15T14:43:02;19.20;45.50
35325;DHT22;35135;47.510;19.036;2024-01-15T14:45:28;19.20;45.50
35325;DHT22;35135;47.510;19.036;2024-01-15T14:47:55;19.20;45.40
35325;DHT22;35135;47.510;19.036;2024-01-15T14:50:22;19.20;45.40
35325;DHT22;35135;47.510;19.036;2024-01-15T14:52:48;19.20;45.40
35325;DHT22;35135;47.510;19.036;2024-01-15T14:55:14;19.20;45.40
35325;DHT22;35135;47.510;19.036;2024-01-15T14:57:40;19.20;45.50
35325;DHT22;35135;47.510;19.036;2024-01-15T15:00:07;19.20;45.40
35325;DHT22;35135;47.510;19.036;2024-01-15T15:02:36;19.20;45.40
35325;DHT22;35135;47.510;19.036;2024-01-15T15:05:04;19.20;45.40
35325;DHT22;35135;47.510;19.036;2024-01-15T15:07:30;19.20;46.00
35325;DHT22;35135;47.510;19.036;2024-01-15T15:09:56;19.20;45.50
35325;DHT22;35135;47.510;19.036;2024-01-15T15:12:22;19.10;45.40
35325;DHT22;35135;47.510;19.036;2024-01-15T15:14:48;19.20;45.50
35325;DHT22;35135;47.510;19.036;2024-01-15T15:17:13;19.20;45.30
35325;DHT22;35135;47.510;19.036;2024-01-15T15:19:39;19.20;45.30
35325;DHT22;35135;47.510;19.036;2024-01-15T15:22:08;19.20;45.50
35325;DHT22;35135;47.510;19.036;2024-01-15T15:24:37;19.20;45.40
35325;DHT22;35135;47.510;19.036;2024-01-15T15:27:04;19.20;45.40
35325;DHT22;35135;47.510;19.036;2024-01-15T15:29:31;19.30;45.50